sensor_id;sensor_type;location;lat;lon;timestamp;temperature;humidity
22607;DHT22;11470;20.968;105.834;2024-01-30T00:01:46;13.20;99.90
22607;DHT22;11470;20.968;105.834;2024-01-30T00:06:50;13.20;99.90
22607;DHT22;11470;20.968;105.834;2024-01-30T00:11:56;13.20;99.90
22607;DHT22;11470;20.968;105.834;2024-01-30T00:17:01;13.20;99.90
22607;DHT22;11470;20.968;105.834;2024-01-30T00:22:06;13.20;99.90
22607;DHT22;11470;20.968;105.834;2024-01-30T00:27:11;13.20;99.90
22607;DHT22;11470;20.968;105.834;2024-01-30T00:32:15;13.30;99.90
22607;DHT22;11470;20.968;105.834;2024-01-30T00:37:20;13.30;99.90
22607;DHT22;11470;20.968;105.834;2024-01-30T00:42:24;13.40;99.90
22607;DHT22;11470;20.968;105.834;2024-01-30T00:47:30;13.40;99.90
22607;DHT22;11470;20.968;105.834;2024-01-30T00:52:37;13.40;99.90
22607;DHT22;11470;20.968;105.834;2024-01-30T00:57:42;13.50;99.90
22607;DHT22;11470;20.968;105.834;2024-01-30T01:02:48;13.50;99.90
22607;DHT22;11470;20.968;105.834;2024-01-30T01:07:52;13.60;99.90
22607;DHT22;11470;20.968;105.834;2024-01-30T01:12:57;13.70;99.90
22607;DHT22;11470;20.968;105.834;2024-01-30T01:18:01;13.70;99.90
22607;DHT22;11470;20.968;105.834;2024-01-30T01:23:06;13.90;99.90
22607;DHT22;11470;20.968;105.834;2024-01-30T01:28:10;13.90;99.90
22607;DHT22;11470;20.968;105.834;2024-01-30T01:33:15;14.00;99.90
22607;DHT22;11470;20.968;105.834;2024-01-30T01:38:20;14.20;99.90
22607;DHT22;11470;20.968;105.834;2024-01-30T01:43:24;14.30;99.90
22607;DHT22;11470;20.968;105.834;2024-01-30T01:48:29;14.40;99.90
22607;DHT22;11470;20.968;105.834;2024-01-30T01:53:33;14.50;99.90
22607;DHT22;11470;20.968;105.834;2024-01-30T01:58:38;14.60;99.90
22607;DHT22;11470;20.968;105.834;2024-01-30T02:03:42;14.70;99.90
22607;DHT22;11470;20.968;105.834;2024-01-30T02:08:48;15.00;99.90
22607;DHT22;11470;20.968;105.834;2024-01-30T02:13:52;15.20;99.90
22607;DHT22;11470;20.968;105.834;2024-01-30T02:18:57;15.50;99.90
22607;DHT22;11470;20.968;105.834;2024-01-30T02:24:02;15.50;99.90
22607;DHT22;11470;20.968;105.834;2024-01-30T02:29:07;15.70;99.90
22607;DHT22;11470;20.968;105.834;2024-01-30T02:34:11;15.80;99.90
22607;DHT22;11470;20.968;105.834;2024-01-30T02:39:16;15.70;99.90
22607;DHT22;11470;20.968;105.834;2024-01-30T02:44:21;15.70;99.90
22607;DHT22;11470;20.968;105.834;2024-01-30T02:49:25;15.70;99.90
22607;DHT22;11470;20.968;105.834;2024-01-30T02:54:30;15.50;99.90
22607;DHT22;11470;20.968;105.834;2024-01-30T02:59:36;15.50;99.90
22607;DHT22;11470;20.968;105.834;2024-01-30T03:04:41;15.50;99.90
22607;DHT22;11470;20.968;105.834;2024-01-30T03:09:45;15.80;99.90
22607;DHT22;11470;20.968;105.834;2024-01-30T03:14:50;15.90;99.90
22607;DHT22;11470;20.968;105.834;2024-01-30T03:19:54;16.00;99.90
22607;DHT22;11470;20.968;105.834;2024-01-30T03:24:59;16.20;99.90
22607;DHT22;11470;20.968;105.834;2024-01-30T03:30:04;16.30;99.90
22607;DHT22;11470;20.968;105.834;2024-01-30T03:35:09;16.30;99.90
22607;DHT22;11470;20.968;105.834;2024-01-30T03:40:14;16.50;99.90
22607;DHT22;11470;20.968;105.834;2024-01-30T03:45:36;16.40;99.90
22607;DHT22;11470;20.968;105.834;2024-01-30T03:50:41;16.40;99.90
22607;DHT22;11470;20.968;105.834;2024-01-30T03:55:46;16.40;99.90
22607;DHT22;11470;20.968;105.834;2024-01-30T04:00:50;16.40;99.90
22607;DHT22;11470;20.968;105.834;2024-01-30T04:05:55;16.40;99.90
22607;DHT22;11470;20.968;105.834;2024-01-30T04:11:06;16.50;99.90
22607;DHT22;11470;20.968;105.834;2024-01-30T04:16:18;16.30;99.90
22607;DHT22;11470;20.968;105.834;2024-01-30T04:21:23;16.30;99.90
22607;DHT22;11470;20.968;105.834;2024-01-30T04:26:27;16.30;99.90
22607;DHT22;11470;20.968;105.834;2024-01-30T04:31:32;16.30;99.90
22607;DHT22;11470;20.968;105.834;2024-01-30T04:36:36;16.40;99.90
22607;DHT22;11470;20.968;105.834;2024-01-30T04:41:41;16.40;99.90
22607;DHT22;11470;20.968;105.834;2024-01-30T04:46:46;16.60;99.90
22607;DHT22;11470;20.968;105.834;2024-01-30T04:51:50;16.80;99.90
22607;DHT22;11470;20.968;105.834;2024-01-30T04:56:54;17.00;99.90
22607;DHT22;11470;20.968;105.834;2024-01-30T05:01:59;17.00;99.90
22607;DHT22;11470;20.968;105.834;2024-01-30T05:07:04;17.30;99.90
22607;DHT22;11470;20.968;105.834;2024-01-30T05:12:10;17.40;99.90
22607;DHT22;11470;20.968;105.834;2024-01-30T05:17:14;17.40;99.90
22607;DHT22;11470;20.968;105.834;2024-01-30T05:22:19;17.60;99.90
22607;DHT22;11470;20.968;105.834;2024-01-30T05:27:24;17.80;99.90
22607;DHT22;11470;20.968;105.834;2024-01-30T05:32:28;18.00;99.90
22607;DHT22;11470;20.968;105.834;2024-01-30T05:37:34;18.00;99.90
22607;DHT22;11470;20.968;105.834;2024-01-30T05:42:38;17.80;99.90
22607;DHT22;11470;20.968;105.834;2024-01-30T05:47:43;17.40;99.90
22607;DHT22;11470;20.968;105.834;2024-01-30T05:52:47;17.10;99.90
22607;DHT22;11470;20.968;105.834;2024-01-30T05:57:53;16.90;99.90
22607;DHT22;11470;20.968;105.834;2024-01-30T06:02:57;16.80;99.90
22607;DHT22;11470;20.968;105.834;2024-01-30T06:08:02;16.80;99.90
22607;DHT22;11470;20.968;105.834;2024-01-30T06:13:13;16.60;99.90
22607;DHT22;11470;20.968;105.834;2024-01-30T06:18:18;16.50;99.90
22607;DHT22;11470;20.968;105.834;2024-01-30T06:23:24;16.40;99.90
22607;DHT22;11470;20.968;105.834;2024-01-30T06:28:29;16.40;99.90
22607;DHT22;11470;20.968;105.834;2024-01-30T06:33:34;16.40;99.90
22607;DHT22;11470;20.968;105.834;2024-01-30T06:38:40;16.50;99.90
22607;DHT22;11470;20.968;105.834;2024-01-30T06:43:45;16.60;99.90
22607;DHT22;11470;20.968;105.834;2024-01-30T06:48:49;16.80;99.90
22607;DHT22;11470;20.968;105.834;2024-01-30T06:53:54;16.80;99.90
22607;DHT22;11470;20.968;105.834;2024-01-30T06:58:58;16.90;99.90
22607;DHT22;11470;20.968;105.834;2024-01-30T07:04:03;17.00;99.90
22607;DHT22;11470;20.968;105.834;2024-01-30T07:09:08;17.20;99.90
22607;DHT22;11470;20.968;105.834;2024-01-30T07:14:12;17.20;99.90
22607;DHT22;11470;20.968;105.834;2024-01-30T07:19:17;17.30;99.90
22607;DHT22;11470;20.968;105.834;2024-01-30T07:24:22;17.40;99.90
22607;DHT22;11470;20.968;105.834;2024-01-30T07:29:28;17.40;99.90
22607;DHT22;11470;20.968;105.834;2024-01-30T07:34:33;17.40;99.90
22607;DHT22;11470;20.968;105.834;2024-01-30T07:39:51;17.30;99.90
22607;DHT22;11470;20.968;105.834;2024-01-30T07:44:55;17.40;99.90
22607;DHT22;11470;20.968;105.834;2024-01-30T07:50:01;17.50;99.90
22607;DHT22;11470;20.968;105.834;2024-01-30T07:55:07;17.60;99.90
22607;DHT22;11470;20.968;105.834;2024-01-30T08:00:12;17.90;99.90
22607;DHT22;11470;20.968;105.834;2024-01-30T08:05:18;18.10;99.90
22607;DHT22;11470;20.968;105.834;2024-01-30T08:10:22;18.20;99.90
22607;DHT22;11470;20.968;105.834;2024-01-30T08:15:28;18.10;99.90
22607;DHT22;11470;20.968;105.834;2024-01-30T08:20:33;18.10;99.90
22607;DHT22;11470;20.968;105.834;2024-01-30T08:25:39;18.10;99.90
22607;DHT22;11470;20.968;105.834;2024-01-30T08:30:44;17.90;99.90
22607;DHT22;11470;20.968;105.834;2024-01-30T08:35:49;17.80;99.90
22607;DHT22;11470;20.968;105.834;2024-01-30T08:40:54;17.70;99.90
22607;DHT22;11470;20.968;105.834;2024-01-30T08:45:59;17.60;99.90
22607;DHT22;11470;20.968;105.834;2024-01-30T08:51:04;17.70;99.90
22607;DHT22;11470;20.968;105.834;2024-01-30T08:56:12;17.80;99.90
22607;DHT22;11470;20.968;105.834;2024-01-30T09:01:17;17.80;99.90
22607;DHT22;11470;20.968;105.834;2024-01-30T09:06:28;17.80;99.90
22607;DHT22;11470;20.968;105.834;2024-01-30T09:11:34;17.60;99.90
22607;DHT22;11470;20.968;105.834;2024-01-30T09:16:40;17.50;99.90
22607;DHT22;11470;20.968;105.834;2024-01-30T09:21:45;17.40;99.90
22607;DHT22;11470;20.968;105.834;2024-01-30T09:26:50;17.50;99.90
22607;DHT22;11470;20.968;105.834;2024-01-30T09:31:55;17.50;99.90
22607;DHT22;11470;20.968;105.834;2024-01-30T09:36:59;17.50;99.90
22607;DHT22;11470;20.968;105.834;2024-01-30T09:47:30;17.30;99.90
22607;DHT22;11470;20.968;105.834;2024-01-30T09:52:40;17.20;99.90
22607;DHT22;11470;20.968;105.834;2024-01-30T09:57:46;17.10;99.90
22607;DHT22;11470;20.968;105.834;2024-01-30T10:02:51;17.10;99.90
22607;DHT22;11470;20.968;105.834;2024-01-30T10:07:57;17.00;99.90
22607;DHT22;11470;20.968;105.834;2024-01-30T10:13:03;17.00;99.90
22607;DHT22;11470;20.968;105.834;2024-01-30T10:18:09;16.90;99.90
22607;DHT22;11470;20.968;105.834;2024-01-30T10:23:14;16.80;99.90
22607;DHT22;11470;20.968;105.834;2024-01-30T10:28:20;16.70;99.90
22607;DHT22;11470;20.968;105.834;2024-01-30T10:33:29;16.70;99.90
22607;DHT22;11470;20.968;105.834;2024-01-30T10:38:34;16.60;99.90
22607;DHT22;11470;20.968;105.834;2024-01-30T10:43:42;16.50;99.90
22607;DHT22;11470;20.968;105.834;2024-01-30T10:48:58;16.50;99.90
22607;DHT22;11470;20.968;105.834;2024-01-30T10:54:06;16.50;99.90
22607;DHT22;11470;20.968;105.834;2024-01-30T10:59:11;16.40;99.90
22607;DHT22;11470;20.968;105.834;2024-01-30T11:04:18;16.30;99.90
22607;DHT22;11470;20.968;105.834;2024-01-30T11:09:23;16.30;99.90
22607;DHT22;11470;20.968;105.834;2024-01-30T11:14:31;16.30;99.90
22607;DHT22;11470;20.968;105.834;2024-01-30T11:19:36;16.20;99.90
22607;DHT22;11470;20.968;105.834;2024-01-30T11:24:41;16.20;99.90
22607;DHT22;11470;20.968;105.834;2024-01-30T11:29:49;16.20;99.90
22607;DHT22;11470;20.968;105.834;2024-01-30T11:34:55;16.20;99.90
22607;DHT22;11470;20.968;105.834;2024-01-30T11:40:00;16.10;99.90
22607;DHT22;11470;20.968;105.834;2024-01-30T11:45:07;16.10;99.90
22607;DHT22;11470;20.968;105.834;2024-01-30T11:50:13;16.10;99.90
22607;DHT22;11470;20.968;105.834;2024-01-30T11:55:18;16.20;99.90
22607;DHT22;11470;20.968;105.834;2024-01-30T12:00:24;16.10;99.90
22607;DHT22;11470;20.968;105.834;2024-01-30T12:05:29;16.10;99.90
22607;DHT22;11470;20.968;105.834;2024-01-30T12:10:34;16.10;99.90
22607;DHT22;11470;20.968;105.834;2024-01-30T12:15:39;16.10;99.90
22607;DHT22;11470;20.968;105.834;2024-01-30T12:20:45;16.10;99.90
22607;DHT22;11470;20.968;105.834;2024-01-30T12:25:50;16.10;99.90
22607;DHT22;11470;20.968;105.834;2024-01-30T12:31:01;16.20;99.90
22607;DHT22;11470;20.968;105.834;2024-01-30T12:36:06;16.10;99.90
22607;DHT22;11470;20.968;105.834;2024-01-30T12:41:11;16.10;99.90
22607;DHT22;11470;20.968;105.834;2024-01-30T12:46:16;16.10;99.90
22607;DHT22;11470;20.968;105.834;2024-01-30T12:51:21;16.10;99.90
22607;DHT22;11470;20.968;105.834;2024-01-30T12:56:26;16.10;99.90
22607;DHT22;11470;20.968;105.834;2024-01-30T13:01:31;16.10;99.90
22607;DHT22;11470;20.968;105.834;2024-01-30T13:06:35;16.10;99.90
22607;DHT22;11470;20.968;105.834;2024-01-30T13:11:40;16.10;99.90
22607;DHT22;11470;20.968;105.834;2024-01-30T13:16:45;16.10;99.90
22607;DHT22;11470;20.968;105.834;2024-01-30T13:21:51;16.10;99.90
22607;DHT22;11470;20.968;105.834;2024-01-30T13:26:56;16.10;99.90
22607;DHT22;11470;20.968;105.834;2024-01-30T13:32:01;16.00;99.90
22607;DHT22;11470;20.968;105.834;2024-01-30T13:37:05;16.10;99.90
22607;DHT22;11470;20.968;105.834;2024-01-30T13:42:10;16.00;99.90
22607;DHT22;11470;20.968;105.834;2024-01-30T13:47:14;16.00;99.90
22607;DHT22;11470;20.968;105.834;2024-01-30T13:52:19;16.00;99.90
22607;DHT22;11470;20.968;105.834;2024-01-30T13:57:27;16.00;99.90
22607;DHT22;11470;20.968;105.834;2024-01-30T14:02:32;16.00;99.90
22607;DHT22;11470;20.968;105.834;2024-01-30T14:07:37;16.00;99.90
22607;DHT22;11470;20.968;105.834;2024-01-30T14:12:47;16.00;99.90
22607;DHT22;11470;20.968;105.834;2024-01-30T14:17:54;16.00;99.90
22607;DHT22;11470;20.968;105.834;2024-01-30T14:23:00;16.00;99.90
22607;DHT22;11470;20.968;105.834;2024-01-30T14:28:05;16.00;99.90
22607;DHT22;11470;20.968;105.834;2024-01-30T14:33:10;16.00;99.90
22607;DHT22;11470;20.968;105.834;2024-01-30T14:38:15;16.00;99.90
22607;DHT22;11470;20.968;105.834;2024-01-30T14:43:22;16.00;99.90
22607;DHT22;11470;20.968;105.834;2024-01-30T14:48:27;15.90;99.90
22607;DHT22;11470;20.968;105.834;2024-01-30T14:53:32;16.00;99.90
22607;DHT22;11470;20.968;105.834;2024-01-30T14:58:37;16.00;99.90
22607;DHT22;11470;20.968;105.834;2024-01-30T15:03:45;16.00;99.90
22607;DHT22;11470;20.968;105.834;2024-01-30T15:08:50;16.00;99.90
22607;DHT22;11470;20.968;105.834;2024-01-30T15:13:55;15.90;99.90
22607;DHT22;11470;20.968;105.834;2024-01-30T15:19:00;15.90;99.90
22607;DHT22;11470;20.968;105.834;2024-01-30T15:24:05;15.90;99.90
22607;DHT22;11470;20.968;105.834;2024-01-30T15:29:09;15.90;99.90
22607;DHT22;11470;20.968;105.834;2024-01-30T15:34:14;15.80;99.90
22607;DHT22;11470;20.968;105.834;2024-01-30T15:39:22;15.90;99.90
22607;DHT22;11470;20.968;105.834;2024-01-30T15:44:29;15.80;99.90
22607;DHT22;11470;20.968;105.834;2024-01-30T15:49:35;15.80;99.90
22607;DHT22;11470;20.968;105.834;2024-01-30T15:54:41;15.80;99.90
22607;DHT22;11470;20.968;105.834;2024-01-30T15:59:45;15.70;99.90
22607;DHT22;11470;20.968;105.834;2024-01-30T16:04:50;15.80;99.90
22607;DHT22;11470;20.968;105.834;2024-01-30T16:09:55;15.80;99.90
22607;DHT22;11470;20.968;105.834;2024-01-30T16:15:00;15.80;99.90
22607;DHT22;11470;20.968;105.834;2024-01-30T16:20:05;15.80;99.90
22607;DHT22;11470;20.968;105.834;2024-01-30T16:25:10;15.80;99.90
22607;DHT22;11470;20.968;105.834;2024-01-30T16:30:16;15.70;99.90
22607;DHT22;11470;20.968;105.834;2024-01-30T16:35:22;15.70;99.90
22607;DHT22;11470;20.968;105.834;2024-01-30T16:40:47;15.70;99.90
22607;DHT22;11470;20.968;105.834;2024-01-30T16:45:52;15.70;99.90
22607;DHT22;11470;20.968;105.834;2024-01-30T16:50:57;15.80;99.90
22607;DHT22;11470;20.968;105.834;2024-01-30T16:56:01;15.70;99.90
22607;DHT22;11470;20.968;105.834;2024-01-30T17:01:06;15.70;99.90
22607;DHT22;11470;20.968;105.834;2024-01-30T17:06:11;15.70;99.90
22607;DHT22;11470;20.968;105.834;2024-01-30T17:11:16;15.70;99.90
22607;DHT22;11470;20.968;105.834;2024-01-30T17:16:22;15.70;99.90
22607;DHT22;11470;20.968;105.834;2024-01-30T17:21:27;15.70;99.90
22607;DHT22;11470;20.968;105.834;2024-01-30T17:26:34;15.70;99.90
22607;DHT22;11470;20.968;105.834;2024-01-30T17:31:45;15.70;99.90
22607;DHT22;11470;20.968;105.834;2024-01-30T17:37:35;15.70;99.90
22607;DHT22;11470;20.968;105.834;2024-01-30T17:42:32;15.60;99.90
22607;DHT22;11470;20.968;105.834;2024-01-30T17:47:37;15.60;99.90
22607;DHT22;11470;20.968;105.834;2024-01-30T17:52:42;15.60;99.90
22607;DHT22;11470;20.968;105.834;2024-01-30T17:57:47;15.60;99.90
22607;DHT22;11470;20.968;105.834;2024-01-30T18:02:52;15.60;99.90
22607;DHT22;11470;20.968;105.834;2024-01-30T18:07:59;15.60;99.90
22607;DHT22;11470;20.968;105.834;2024-01-30T18:13:05;15.60;99.90
22607;DHT22;11470;20.968;105.834;2024-01-30T18:18:09;15.60;99.90
22607;DHT22;11470;20.968;105.834;2024-01-30T18:23:16;15.60;99.90
22607;DHT22;11470;20.968;105.834;2024-01-30T18:28:21;15.50;99.90
22607;DHT22;11470;20.968;105.834;2024-01-30T18:33:26;15.40;99.90
22607;DHT22;11470;20.968;105.834;2024-01-30T18:38:31;15.40;99.90
22607;DHT22;11470;20.968;105.834;2024-01-30T18:43:35;15.20;99.90
22607;DHT22;11470;20.968;105.834;2024-01-30T18:48:40;15.20;99.90
22607;DHT22;11470;20.968;105.834;2024-01-30T18:53:47;15.10;99.90
22607;DHT22;11470;20.968;105.834;2024-01-30T18:58:52;15.10;99.90
22607;DHT22;11470;20.968;105.834;2024-01-30T19:03:56;15.00;99.90
22607;DHT22;11470;20.968;105.834;2024-01-30T19:09:01;15.10;99.90
22607;DHT22;11470;20.968;105.834;2024-01-30T19:14:05;15.10;99.90
22607;DHT22;11470;20.968;105.834;2024-01-30T19:19:10;15.10;99.90
22607;DHT22;11470;20.968;105.834;2024-01-30T19:24:14;15.00;99.90
22607;DHT22;11470;20.968;105.834;2024-01-30T19:29:19;15.00;99.90
22607;DHT22;11470;20.968;105.834;2024-01-30T19:34:23;15.00;99.90
22607;DHT22;11470;20.968;105.834;2024-01-30T19:39:28;14.90;99.90
22607;DHT22;11470;20.968;105.834;2024-01-30T19:44:33;14.90;99.90
22607;DHT22;11470;20.968;105.834;2024-01-30T19:49:37;14.90;99.90
22607;DHT22;11470;20.968;105.834;2024-01-30T19:54:43;14.90;99.90
22607;DHT22;11470;20.968;105.834;2024-01-30T19:59:47;14.90;99.90
22607;DHT22;11470;20.968;105.834;2024-01-30T20:04:52;14.90;99.90
22607;DHT22;11470;20.968;105.834;2024-01-30T20:09:57;14.90;99.90
22607;DHT22;11470;20.968;105.834;2024-01-30T20:15:03;14.90;99.90
22607;DHT22;11470;20.968;105.834;2024-01-30T20:20:08;14.90;99.90
22607;DHT22;11470;20.968;105.834;2024-01-30T20:25:21;14.90;99.90
22607;DHT22;11470;20.968;105.834;2024-01-30T20:30:26;14.90;99.90
22607;DHT22;11470;20.968;105.834;2024-01-30T20:35:32;14.90;99.90
22607;DHT22;11470;20.968;105.834;2024-01-30T20:40:38;14.90;99.90
22607;DHT22;11470;20.968;105.834;2024-01-30T20:45:45;14.90;99.90
22607;DHT22;11470;20.968;105.834;2024-01-30T20:50:50;14.90;99.90
22607;DHT22;11470;20.968;105.834;2024-01-30T20:55:55;14.90;99.90
22607;DHT22;11470;20.968;105.834;2024-01-30T21:01:00;14.90;99.90
22607;DHT22;11470;20.968;105.834;2024-01-30T21:06:06;14.90;99.90
22607;DHT22;11470;20.968;105.834;2024-01-30T21:11:13;14.90;99.90
22607;DHT22;11470;20.968;105.834;2024-01-30T21:16:18;14.90;99.90
22607;DHT22;11470;20.968;105.834;2024-01-30T21:21:22;14.90;99.90
22607;DHT22;11470;20.968;105.834;2024-01-30T21:26:27;14.90;99.90
22607;DHT22;11470;20.968;105.834;2024-01-30T21:31:31;14.90;99.90
22607;DHT22;11470;20.968;105.834;2024-01-30T21:36:37;14.90;99.90
22607;DHT22;11470;20.968;105.834;2024-01-30T21:41:41;14.90;99.90
22607;DHT22;11470;20.968;105.834;2024-01-30T21:46:47;15.00;99.90
22607;DHT22;11470;20.968;105.834;2024-01-30T21:51:53;14.90;99.90
22607;DHT22;11470;20.968;105.834;2024-01-30T21:57:00;15.00;99.90
22607;DHT22;11470;20.968;105.834;2024-01-30T22:02:05;15.00;99.90
22607;DHT22;11470;20.968;105.834;2024-01-30T22:07:10;15.00;99.90
22607;DHT22;11470;20.968;105.834;2024-01-30T22:12:16;15.10;99.90
22607;DHT22;11470;20.968;105.834;2024-01-30T22:17:21;15.00;99.90
22607;DHT22;11470;20.968;105.834;2024-01-30T22:22:26;15.00;99.90
22607;DHT22;11470;20.968;105.834;2024-01-30T22:27:31;15.00;99.90
22607;DHT22;11470;20.968;105.834;2024-01-30T22:32:36;15.00;99.90
22607;DHT22;11470;20.968;105.834;2024-01-30T22:37:40;15.00;99.90
22607;DHT22;11470;20.968;105.834;2024-01-30T22:42:45;15.00;99.90
22607;DHT22;11470;20.968;105.834;2024-01-30T22:47:50;14.90;99.90
22607;DHT22;11470;20.968;105.834;2024-01-30T22:52:55;14.90;99.90
22607;DHT22;11470;20.968;105.834;2024-01-30T22:57:59;14.90;99.90
22607;DHT22;11470;20.968;105.834;2024-01-30T23:03:04;14.90;99.90
22607;DHT22;11470;20.968;105.834;2024-01-30T23:08:08;14.90;99.90
22607;DHT22;11470;20.968;105.834;2024-01-30T23:13:13;14.90;99.90
22607;DHT22;11470;20.968;105.834;2024-01-30T23:18:18;14.90;99.90
22607;DHT22;11470;20.968;105.834;2024-01-30T23:23:23;15.00;99.90
22607;DHT22;11470;20.968;105.834;2024-01-30T23:28:28;14.90;99.90
22607;DHT22;11470;20.968;105.834;2024-01-30T23:33:32;14.90;99.90
22607;DHT22;11470;20.968;105.834;2024-01-30T23:38:37;14.90;99.90
22607;DHT22;11470;20.968;105.834;2024-01-30T23:43:43;14.90;99.90
22607;DHT22;11470;20.968;105.834;2024-01-30T23:48:48;14.90;99.90
22607;DHT22;11470;20.968;105.834;2024-01-30T23:53:52;15.00;99.90
22607;DHT22;11470;20.968;105.834;2024-01-30T23:58:57;15.10;99.90
